sensor_id;sensor_type;location;lat;lon;timestamp;P1;durP1;ratioP1;P2;durP2;ratioP2
78589;SDS011;67888;50.228;7.828;2023-05-10T00:01:36;1.40;;;1.00;;
78589;SDS011;67888;50.228;7.828;2023-05-10T00:06:37;2.60;;;0.80;;
78589;SDS011;67888;50.228;7.828;2023-05-10T00:11:37;1.50;;;0.83;;
78589;SDS011;67888;50.228;7.828;2023-05-10T00:16:37;1.60;;;0.70;;
78589;SDS011;67888;50.228;7.828;2023-05-10T00:21:38;2.13;;;0.73;;
78589;SDS011;67888;50.228;7.828;2023-05-10T00:26:38;1.47;;;0.97;;
78589;SDS011;67888;50.228;7.828;2023-05-10T00:31:38;3.40;;;1.10;;
78589;SDS011;67888;50.228;7.828;2023-05-10T00:36:39;2.97;;;1.00;;
78589;SDS011;67888;50.228;7.828;2023-05-10T00:41:39;1.93;;;1.20;;
78589;SDS011;67888;50.228;7.828;2023-05-10T00:46:40;1.42;;;0.90;;
78589;SDS011;67888;50.228;7.828;2023-05-10T00:51:41;1.50;;;0.80;;
78589;SDS011;67888;50.228;7.828;2023-05-10T00:56:43;2.08;;;0.88;;
78589;SDS011;67888;50.228;7.828;2023-05-10T01:01:48;2.47;;;1.40;;
78589;SDS011;67888;50.228;7.828;2023-05-10T01:06:49;2.93;;;1.10;;
78589;SDS011;67888;50.228;7.828;2023-05-10T01:11:49;1.93;;;0.80;;
78589;SDS011;67888;50.228;7.828;2023-05-10T01:16:50;1.40;;;0.80;;
78589;SDS011;67888;50.228;7.828;2023-05-10T01:22:10;1.98;;;0.90;;
78589;SDS011;67888;50.228;7.828;2023-05-10T01:37:33;2.03;;;1.05;;
78589;SDS011;67888;50.228;7.828;2023-05-10T01:42:39;2.03;;;0.70;;
78589;SDS011;67888;50.228;7.828;2023-05-10T01:47:42;1.65;;;0.80;;
78589;SDS011;67888;50.228;7.828;2023-05-10T01:52:42;2.22;;;0.93;;
78589;SDS011;67888;50.228;7.828;2023-05-10T01:57:44;2.50;;;1.10;;
78589;SDS011;67888;50.228;7.828;2023-05-10T02:02:47;4.65;;;1.00;;
78589;SDS011;67888;50.228;7.828;2023-05-10T02:07:48;3.53;;;1.00;;
78589;SDS011;67888;50.228;7.828;2023-05-10T02:12:49;2.47;;;1.10;;
78589;SDS011;67888;50.228;7.828;2023-05-10T02:17:50;2.30;;;1.10;;
78589;SDS011;67888;50.228;7.828;2023-05-10T02:22:52;3.30;;;1.27;;
78589;SDS011;67888;50.228;7.828;2023-05-10T02:27:53;4.38;;;1.20;;
78589;SDS011;67888;50.228;7.828;2023-05-10T02:32:55;2.80;;;1.17;;
78589;SDS011;67888;50.228;7.828;2023-05-10T02:37:56;2.97;;;1.20;;
78589;SDS011;67888;50.228;7.828;2023-05-10T02:42:57;3.40;;;1.40;;
78589;SDS011;67888;50.228;7.828;2023-05-10T02:47:58;3.07;;;1.23;;
78589;SDS011;67888;50.228;7.828;2023-05-10T02:53:00;5.23;;;1.60;;
78589;SDS011;67888;50.228;7.828;2023-05-10T02:58:02;4.55;;;1.65;;
78589;SDS011;67888;50.228;7.828;2023-05-10T03:03:03;4.23;;;1.83;;
78589;SDS011;67888;50.228;7.828;2023-05-10T03:08:04;4.13;;;1.63;;
78589;SDS011;67888;50.228;7.828;2023-05-10T03:13:28;3.70;;;1.35;;
78589;SDS011;67888;50.228;7.828;2023-05-10T03:18:33;4.30;;;1.50;;
78589;SDS011;67888;50.228;7.828;2023-05-10T03:23:35;3.63;;;1.30;;
78589;SDS011;67888;50.228;7.828;2023-05-10T03:28:36;4.15;;;1.50;;
78589;SDS011;67888;50.228;7.828;2023-05-10T03:33:45;4.07;;;1.50;;
78589;SDS011;67888;50.228;7.828;2023-05-10T03:38:45;3.58;;;1.65;;
78589;SDS011;67888;50.228;7.828;2023-05-10T03:43:46;5.27;;;1.83;;
78589;SDS011;67888;50.228;7.828;2023-05-10T03:48:46;4.87;;;1.73;;
78589;SDS011;67888;50.228;7.828;2023-05-10T03:53:47;5.70;;;1.90;;
78589;SDS011;67888;50.228;7.828;2023-05-10T03:58:47;4.30;;;1.80;;
78589;SDS011;67888;50.228;7.828;2023-05-10T04:03:48;5.05;;;1.85;;
78589;SDS011;67888;50.228;7.828;2023-05-10T04:08:49;5.37;;;1.80;;
78589;SDS011;67888;50.228;7.828;2023-05-10T04:13:49;4.70;;;1.80;;
78589;SDS011;67888;50.228;7.828;2023-05-10T04:18:50;5.27;;;1.80;;
78589;SDS011;67888;50.228;7.828;2023-05-10T04:23:50;4.80;;;1.90;;
78589;SDS011;67888;50.228;7.828;2023-05-10T04:28:51;5.87;;;2.17;;
78589;SDS011;67888;50.228;7.828;2023-05-10T04:33:51;5.03;;;1.90;;
78589;SDS011;67888;50.228;7.828;2023-05-10T04:38:52;4.72;;;2.08;;
78589;SDS011;67888;50.228;7.828;2023-05-10T04:43:52;4.90;;;2.10;;
78589;SDS011;67888;50.228;7.828;2023-05-10T04:48:53;5.40;;;1.90;;
78589;SDS011;67888;50.228;7.828;2023-05-10T04:53:53;6.70;;;2.37;;
78589;SDS011;67888;50.228;7.828;2023-05-10T04:58:53;7.17;;;2.00;;
78589;SDS011;67888;50.228;7.828;2023-05-10T05:03:54;5.77;;;2.40;;
78589;SDS011;67888;50.228;7.828;2023-05-10T05:08:54;4.50;;;1.90;;
78589;SDS011;67888;50.228;7.828;2023-05-10T05:13:55;7.57;;;2.57;;
78589;SDS011;67888;50.228;7.828;2023-05-10T05:18:55;6.10;;;2.40;;
78589;SDS011;67888;50.228;7.828;2023-05-10T05:23:56;5.75;;;2.35;;
78589;SDS011;67888;50.228;7.828;2023-05-10T05:28:56;6.43;;;1.93;;
78589;SDS011;67888;50.228;7.828;2023-05-10T05:33:57;4.37;;;1.80;;
78589;SDS011;67888;50.228;7.828;2023-05-10T05:38:58;6.40;;;2.10;;
78589;SDS011;67888;50.228;7.828;2023-05-10T05:43:59;5.70;;;2.77;;
78589;SDS011;67888;50.228;7.828;2023-05-10T05:48:59;6.83;;;2.03;;
78589;SDS011;67888;50.228;7.828;2023-05-10T05:54:00;6.70;;;1.93;;
78589;SDS011;67888;50.228;7.828;2023-05-10T05:59:00;5.93;;;2.07;;
78589;SDS011;67888;50.228;7.828;2023-05-10T06:04:01;4.57;;;1.80;;
78589;SDS011;67888;50.228;7.828;2023-05-10T06:09:01;5.50;;;2.00;;
78589;SDS011;67888;50.228;7.828;2023-05-10T06:14:02;5.40;;;1.90;;
78589;SDS011;67888;50.228;7.828;2023-05-10T06:19:04;6.27;;;1.97;;
78589;SDS011;67888;50.228;7.828;2023-05-10T06:24:05;5.07;;;2.00;;
78589;SDS011;67888;50.228;7.828;2023-05-10T06:29:06;5.87;;;2.27;;
78589;SDS011;67888;50.228;7.828;2023-05-10T06:34:08;5.30;;;2.33;;
78589;SDS011;67888;50.228;7.828;2023-05-10T06:39:08;6.83;;;2.17;;
78589;SDS011;67888;50.228;7.828;2023-05-10T06:44:09;7.93;;;2.33;;
78589;SDS011;67888;50.228;7.828;2023-05-10T06:49:09;5.60;;;2.07;;
78589;SDS011;67888;50.228;7.828;2023-05-10T06:54:09;5.00;;;2.00;;
78589;SDS011;67888;50.228;7.828;2023-05-10T06:59:10;6.47;;;2.10;;
78589;SDS011;67888;50.228;7.828;2023-05-10T07:04:10;6.93;;;2.30;;
78589;SDS011;67888;50.228;7.828;2023-05-10T07:09:10;5.77;;;2.40;;
78589;SDS011;67888;50.228;7.828;2023-05-10T07:14:11;7.13;;;2.53;;
78589;SDS011;67888;50.228;7.828;2023-05-10T07:19:12;6.97;;;2.23;;
78589;SDS011;67888;50.228;7.828;2023-05-10T07:24:12;6.83;;;2.43;;
78589;SDS011;67888;50.228;7.828;2023-05-10T07:29:12;7.10;;;2.90;;
78589;SDS011;67888;50.228;7.828;2023-05-10T07:34:12;8.30;;;2.63;;
78589;SDS011;67888;50.228;7.828;2023-05-10T07:39:13;6.13;;;2.23;;
78589;SDS011;67888;50.228;7.828;2023-05-10T07:44:13;7.87;;;2.37;;
78589;SDS011;67888;50.228;7.828;2023-05-10T07:49:14;7.40;;;2.60;;
78589;SDS011;67888;50.228;7.828;2023-05-10T07:54:14;7.30;;;2.33;;
78589;SDS011;67888;50.228;7.828;2023-05-10T07:59:15;7.00;;;2.30;;
78589;SDS011;67888;50.228;7.828;2023-05-10T08:04:16;8.07;;;2.40;;
78589;SDS011;67888;50.228;7.828;2023-05-10T08:09:17;6.80;;;2.40;;
78589;SDS011;67888;50.228;7.828;2023-05-10T08:14:17;5.50;;;2.40;;
78589;SDS011;67888;50.228;7.828;2023-05-10T08:19:18;5.80;;;2.00;;
78589;SDS011;67888;50.228;7.828;2023-05-10T08:24:19;7.38;;;2.20;;
78589;SDS011;67888;50.228;7.828;2023-05-10T08:29:20;6.50;;;2.23;;
78589;SDS011;67888;50.228;7.828;2023-05-10T08:34:20;6.47;;;2.50;;
78589;SDS011;67888;50.228;7.828;2023-05-10T08:39:20;7.77;;;2.77;;
78589;SDS011;67888;50.228;7.828;2023-05-10T08:44:21;5.10;;;2.00;;
78589;SDS011;67888;50.228;7.828;2023-05-10T08:49:21;5.23;;;1.97;;
78589;SDS011;67888;50.228;7.828;2023-05-10T08:54:22;5.97;;;2.40;;
78589;SDS011;67888;50.228;7.828;2023-05-10T08:59:23;4.35;;;2.03;;
78589;SDS011;67888;50.228;7.828;2023-05-10T09:04:23;6.23;;;2.20;;
78589;SDS011;67888;50.228;7.828;2023-05-10T09:09:24;4.67;;;1.70;;
78589;SDS011;67888;50.228;7.828;2023-05-10T09:14:25;4.43;;;1.50;;
78589;SDS011;67888;50.228;7.828;2023-05-10T09:19:25;2.27;;;1.50;;
78589;SDS011;67888;50.228;7.828;2023-05-10T09:24:26;3.80;;;1.77;;
78589;SDS011;67888;50.228;7.828;2023-05-10T09:29:38;2.97;;;1.58;;
78589;SDS011;67888;50.228;7.828;2023-05-10T09:34:38;3.13;;;1.45;;
78589;SDS011;67888;50.228;7.828;2023-05-10T09:39:40;4.13;;;1.73;;
78589;SDS011;67888;50.228;7.828;2023-05-10T09:44:41;3.47;;;1.90;;
78589;SDS011;67888;50.228;7.828;2023-05-10T09:49:43;2.60;;;1.70;;
78589;SDS011;67888;50.228;7.828;2023-05-10T09:54:53;2.83;;;1.40;;
78589;SDS011;67888;50.228;7.828;2023-05-10T09:59:54;3.70;;;1.70;;
78589;SDS011;67888;50.228;7.828;2023-05-10T10:04:54;3.38;;;1.20;;
78589;SDS011;67888;50.228;7.828;2023-05-10T10:09:55;3.03;;;1.37;;
78589;SDS011;67888;50.228;7.828;2023-05-10T10:14:55;3.70;;;1.60;;
78589;SDS011;67888;50.228;7.828;2023-05-10T10:19:57;3.88;;;1.45;;
78589;SDS011;67888;50.228;7.828;2023-05-10T10:24:57;3.13;;;1.70;;
78589;SDS011;67888;50.228;7.828;2023-05-10T10:30:07;2.80;;;1.47;;
78589;SDS011;67888;50.228;7.828;2023-05-10T10:35:10;4.93;;;1.55;;
78589;SDS011;67888;50.228;7.828;2023-05-10T10:40:30;3.80;;;1.40;;
78589;SDS011;67888;50.228;7.828;2023-05-10T10:45:30;4.95;;;1.38;;
78589;SDS011;67888;50.228;7.828;2023-05-10T10:50:31;3.17;;;1.60;;
78589;SDS011;67888;50.228;7.828;2023-05-10T10:55:46;3.17;;;1.50;;
78589;SDS011;67888;50.228;7.828;2023-05-10T11:00:47;1.98;;;1.15;;
78589;SDS011;67888;50.228;7.828;2023-05-10T11:05:48;3.67;;;1.30;;
78589;SDS011;67888;50.228;7.828;2023-05-10T11:15:59;3.40;;;1.47;;
78589;SDS011;67888;50.228;7.828;2023-05-10T11:21:09;2.10;;;1.40;;
78589;SDS011;67888;50.228;7.828;2023-05-10T11:26:10;2.60;;;1.67;;
78589;SDS011;67888;50.228;7.828;2023-05-10T11:31:14;3.80;;;1.63;;
78589;SDS011;67888;50.228;7.828;2023-05-10T11:36:19;2.40;;;1.60;;
78589;SDS011;67888;50.228;7.828;2023-05-10T11:41:20;4.45;;;1.75;;
78589;SDS011;67888;50.228;7.828;2023-05-10T11:46:24;3.33;;;1.30;;
78589;SDS011;67888;50.228;7.828;2023-05-10T11:51:25;4.20;;;1.70;;
78589;SDS011;67888;50.228;7.828;2023-05-10T11:56:25;2.08;;;1.23;;
78589;SDS011;67888;50.228;7.828;2023-05-10T12:01:27;4.30;;;1.50;;
78589;SDS011;67888;50.228;7.828;2023-05-10T12:06:28;2.45;;;1.30;;
78589;SDS011;67888;50.228;7.828;2023-05-10T12:11:29;2.35;;;1.20;;
78589;SDS011;67888;50.228;7.828;2023-05-10T12:16:29;2.40;;;1.37;;
78589;SDS011;67888;50.228;7.828;2023-05-10T12:21:30;2.93;;;1.43;;
78589;SDS011;67888;50.228;7.828;2023-05-10T12:26:31;3.40;;;1.23;;
78589;SDS011;67888;50.228;7.828;2023-05-10T12:31:32;2.73;;;1.30;;
78589;SDS011;67888;50.228;7.828;2023-05-10T12:36:32;3.60;;;1.33;;
78589;SDS011;67888;50.228;7.828;2023-05-10T12:41:38;3.67;;;1.20;;
78589;SDS011;67888;50.228;7.828;2023-05-10T12:46:38;3.30;;;1.00;;
78589;SDS011;67888;50.228;7.828;2023-05-10T12:51:39;2.43;;;1.30;;
78589;SDS011;67888;50.228;7.828;2023-05-10T12:56:39;3.80;;;1.50;;
78589;SDS011;67888;50.228;7.828;2023-05-10T13:01:40;2.78;;;1.50;;
78589;SDS011;67888;50.228;7.828;2023-05-10T13:06:41;3.50;;;1.50;;
78589;SDS011;67888;50.228;7.828;2023-05-10T13:11:41;2.57;;;1.60;;
78589;SDS011;67888;50.228;7.828;2023-05-10T13:16:41;2.40;;;1.50;;
78589;SDS011;67888;50.228;7.828;2023-05-10T13:21:42;3.97;;;1.90;;
78589;SDS011;67888;50.228;7.828;2023-05-10T13:26:43;3.35;;;1.60;;
78589;SDS011;67888;50.228;7.828;2023-05-10T13:31:43;2.57;;;1.50;;
78589;SDS011;67888;50.228;7.828;2023-05-10T13:36:44;4.40;;;1.40;;
78589;SDS011;67888;50.228;7.828;2023-05-10T13:41:45;2.33;;;1.50;;
78589;SDS011;67888;50.228;7.828;2023-05-10T13:46:45;4.07;;;1.90;;
78589;SDS011;67888;50.228;7.828;2023-05-10T13:51:46;3.43;;;1.50;;
78589;SDS011;67888;50.228;7.828;2023-05-10T13:56:47;3.25;;;1.50;;
78589;SDS011;67888;50.228;7.828;2023-05-10T14:01:48;3.73;;;1.80;;
78589;SDS011;67888;50.228;7.828;2023-05-10T14:06:48;3.43;;;2.00;;
78589;SDS011;67888;50.228;7.828;2023-05-10T14:11:49;3.13;;;1.97;;
78589;SDS011;67888;50.228;7.828;2023-05-10T14:16:49;3.63;;;2.10;;
78589;SDS011;67888;50.228;7.828;2023-05-10T14:21:50;4.13;;;1.83;;
78589;SDS011;67888;50.228;7.828;2023-05-10T14:26:52;3.13;;;1.37;;
78589;SDS011;67888;50.228;7.828;2023-05-10T14:31:53;2.67;;;1.60;;
78589;SDS011;67888;50.228;7.828;2023-05-10T14:36:54;4.83;;;1.90;;
78589;SDS011;67888;50.228;7.828;2023-05-10T14:41:55;4.10;;;1.73;;
78589;SDS011;67888;50.228;7.828;2023-05-10T14:46:55;5.33;;;1.90;;
78589;SDS011;67888;50.228;7.828;2023-05-10T14:51:56;5.27;;;2.10;;
78589;SDS011;67888;50.228;7.828;2023-05-10T14:56:56;7.10;;;3.00;;
78589;SDS011;67888;50.228;7.828;2023-05-10T15:01:57;4.97;;;2.53;;
78589;SDS011;67888;50.228;7.828;2023-05-10T15:06:57;5.17;;;2.10;;
78589;SDS011;67888;50.228;7.828;2023-05-10T15:11:59;4.35;;;2.33;;
78589;SDS011;67888;50.228;7.828;2023-05-10T15:16:59;4.97;;;2.07;;
78589;SDS011;67888;50.228;7.828;2023-05-10T15:22:00;5.63;;;1.80;;
78589;SDS011;67888;50.228;7.828;2023-05-10T15:27:00;6.23;;;1.90;;
78589;SDS011;67888;50.228;7.828;2023-05-10T15:32:01;5.87;;;2.00;;
78589;SDS011;67888;50.228;7.828;2023-05-10T15:37:01;4.07;;;1.90;;
78589;SDS011;67888;50.228;7.828;2023-05-10T15:42:02;7.60;;;1.98;;
78589;SDS011;67888;50.228;7.828;2023-05-10T15:47:04;4.63;;;2.07;;
78589;SDS011;67888;50.228;7.828;2023-05-10T15:52:05;6.57;;;2.20;;
78589;SDS011;67888;50.228;7.828;2023-05-10T15:57:05;5.27;;;1.90;;
78589;SDS011;67888;50.228;7.828;2023-05-10T16:02:08;7.00;;;2.42;;
78589;SDS011;67888;50.228;7.828;2023-05-10T16:07:09;5.35;;;1.98;;
78589;SDS011;67888;50.228;7.828;2023-05-10T16:12:10;4.27;;;1.80;;
78589;SDS011;67888;50.228;7.828;2023-05-10T16:17:10;3.20;;;1.60;;
78589;SDS011;67888;50.228;7.828;2023-05-10T16:22:11;5.40;;;1.80;;
78589;SDS011;67888;50.228;7.828;2023-05-10T16:27:11;9.17;;;3.23;;
78589;SDS011;67888;50.228;7.828;2023-05-10T16:32:12;5.60;;;2.37;;
78589;SDS011;67888;50.228;7.828;2023-05-10T16:37:12;6.63;;;2.90;;
78589;SDS011;67888;50.228;7.828;2023-05-10T16:42:35;5.40;;;2.80;;
78589;SDS011;67888;50.228;7.828;2023-05-10T16:47:45;5.53;;;2.70;;
78589;SDS011;67888;50.228;7.828;2023-05-10T16:52:46;5.77;;;3.00;;
78589;SDS011;67888;50.228;7.828;2023-05-10T16:57:47;5.70;;;2.80;;
78589;SDS011;67888;50.228;7.828;2023-05-10T17:02:47;6.77;;;3.00;;
78589;SDS011;67888;50.228;7.828;2023-05-10T17:07:48;5.50;;;3.13;;
78589;SDS011;67888;50.228;7.828;2023-05-10T17:12:50;4.68;;;2.15;;
78589;SDS011;67888;50.228;7.828;2023-05-10T17:17:51;5.20;;;1.63;;
78589;SDS011;67888;50.228;7.828;2023-05-10T17:22:51;5.23;;;1.83;;
78589;SDS011;67888;50.228;7.828;2023-05-10T17:27:52;4.97;;;1.87;;
78589;SDS011;67888;50.228;7.828;2023-05-10T17:32:52;4.07;;;2.50;;
78589;SDS011;67888;50.228;7.828;2023-05-10T17:37:55;3.13;;;1.48;;
78589;SDS011;67888;50.228;7.828;2023-05-10T17:42:57;4.90;;;1.80;;
78589;SDS011;67888;50.228;7.828;2023-05-10T17:47:58;2.90;;;1.60;;
78589;SDS011;67888;50.228;7.828;2023-05-10T17:52:58;4.77;;;1.53;;
78589;SDS011;67888;50.228;7.828;2023-05-10T17:57:59;3.47;;;1.33;;
78589;SDS011;67888;50.228;7.828;2023-05-10T18:03:01;4.17;;;1.47;;
78589;SDS011;67888;50.228;7.828;2023-05-10T18:08:02;2.42;;;1.30;;
78589;SDS011;67888;50.228;7.828;2023-05-10T18:13:03;2.45;;;1.10;;
78589;SDS011;67888;50.228;7.828;2023-05-10T18:18:04;10.07;;;2.30;;
78589;SDS011;67888;50.228;7.828;2023-05-10T18:23:04;2.85;;;1.40;;
78589;SDS011;67888;50.228;7.828;2023-05-10T18:28:06;5.33;;;1.30;;
78589;SDS011;67888;50.228;7.828;2023-05-10T18:33:07;3.73;;;1.20;;
78589;SDS011;67888;50.228;7.828;2023-05-10T18:38:10;3.13;;;1.10;;
78589;SDS011;67888;50.228;7.828;2023-05-10T18:43:13;3.47;;;1.27;;
78589;SDS011;67888;50.228;7.828;2023-05-10T18:48:14;2.23;;;1.00;;
78589;SDS011;67888;50.228;7.828;2023-05-10T18:53:15;2.43;;;1.17;;
78589;SDS011;67888;50.228;7.828;2023-05-10T18:58:16;2.60;;;1.13;;
78589;SDS011;67888;50.228;7.828;2023-05-10T19:03:16;5.40;;;1.20;;
78589;SDS011;67888;50.228;7.828;2023-05-10T19:08:16;1.77;;;0.90;;
78589;SDS011;67888;50.228;7.828;2023-05-10T19:13:20;8.53;;;2.13;;
78589;SDS011;67888;50.228;7.828;2023-05-10T19:18:20;3.80;;;1.17;;
78589;SDS011;67888;50.228;7.828;2023-05-10T19:23:21;4.13;;;1.10;;
78589;SDS011;67888;50.228;7.828;2023-05-10T19:28:21;4.30;;;1.30;;
78589;SDS011;67888;50.228;7.828;2023-05-10T19:33:21;6.43;;;1.73;;
78589;SDS011;67888;50.228;7.828;2023-05-10T19:38:22;5.10;;;1.40;;
78589;SDS011;67888;50.228;7.828;2023-05-10T19:43:26;5.03;;;1.40;;
78589;SDS011;67888;50.228;7.828;2023-05-10T19:48:27;6.10;;;1.40;;
78589;SDS011;67888;50.228;7.828;2023-05-10T19:53:28;4.60;;;1.53;;
78589;SDS011;67888;50.228;7.828;2023-05-10T19:58:29;3.80;;;1.45;;
78589;SDS011;67888;50.228;7.828;2023-05-10T20:03:30;4.90;;;1.13;;
78589;SDS011;67888;50.228;7.828;2023-05-10T20:08:32;4.10;;;1.27;;
78589;SDS011;67888;50.228;7.828;2023-05-10T20:13:33;4.37;;;1.37;;
78589;SDS011;67888;50.228;7.828;2023-05-10T20:18:33;5.15;;;1.25;;
78589;SDS011;67888;50.228;7.828;2023-05-10T20:23:34;5.17;;;1.53;;
78589;SDS011;67888;50.228;7.828;2023-05-10T20:28:34;5.70;;;1.40;;
78589;SDS011;67888;50.228;7.828;2023-05-10T20:33:35;6.17;;;1.80;;
78589;SDS011;67888;50.228;7.828;2023-05-10T20:38:35;3.60;;;1.40;;
78589;SDS011;67888;50.228;7.828;2023-05-10T20:43:36;6.57;;;1.60;;
78589;SDS011;67888;50.228;7.828;2023-05-10T20:48:37;4.03;;;1.57;;
78589;SDS011;67888;50.228;7.828;2023-05-10T20:53:37;5.63;;;1.40;;
78589;SDS011;67888;50.228;7.828;2023-05-10T20:58:38;4.38;;;1.60;;
78589;SDS011;67888;50.228;7.828;2023-05-10T21:03:39;12.80;;;1.50;;
78589;SDS011;67888;50.228;7.828;2023-05-10T21:08:39;4.77;;;1.40;;
78589;SDS011;67888;50.228;7.828;2023-05-10T21:13:40;3.77;;;1.37;;
78589;SDS011;67888;50.228;7.828;2023-05-10T21:18:40;6.10;;;1.53;;
78589;SDS011;67888;50.228;7.828;2023-05-10T21:23:41;6.80;;;2.20;;
78589;SDS011;67888;50.228;7.828;2023-05-10T21:28:41;5.38;;;1.42;;
78589;SDS011;67888;50.228;7.828;2023-05-10T21:33:41;6.90;;;2.37;;
78589;SDS011;67888;50.228;7.828;2023-05-10T21:38:42;7.90;;;3.10;;
78589;SDS011;67888;50.228;7.828;2023-05-10T21:43:43;19.65;;;7.25;;
78589;SDS011;67888;50.228;7.828;2023-05-10T21:48:44;10.27;;;3.30;;
78589;SDS011;67888;50.228;7.828;2023-05-10T21:53:44;7.40;;;2.57;;
78589;SDS011;67888;50.228;7.828;2023-05-10T21:58:44;6.47;;;2.47;;
78589;SDS011;67888;50.228;7.828;2023-05-10T22:03:46;5.28;;;1.80;;
78589;SDS011;67888;50.228;7.828;2023-05-10T22:08:46;6.07;;;2.20;;
78589;SDS011;67888;50.228;7.828;2023-05-10T22:13:47;7.25;;;1.88;;
78589;SDS011;67888;50.228;7.828;2023-05-10T22:18:48;4.30;;;1.80;;
78589;SDS011;67888;50.228;7.828;2023-05-10T22:23:48;5.57;;;2.43;;
78589;SDS011;67888;50.228;7.828;2023-05-10T22:28:48;5.30;;;1.70;;
78589;SDS011;67888;50.228;7.828;2023-05-10T22:33:49;7.40;;;2.10;;
78589;SDS011;67888;50.228;7.828;2023-05-10T22:38:49;7.30;;;2.23;;
78589;SDS011;67888;50.228;7.828;2023-05-10T22:43:50;4.10;;;1.40;;
78589;SDS011;67888;50.228;7.828;2023-05-10T22:48:50;5.90;;;1.70;;
78589;SDS011;67888;50.228;7.828;2023-05-10T22:53:50;6.50;;;1.90;;
78589;SDS011;67888;50.228;7.828;2023-05-10T22:58:51;6.00;;;1.80;;
78589;SDS011;67888;50.228;7.828;2023-05-10T23:03:51;5.43;;;2.40;;
78589;SDS011;67888;50.228;7.828;2023-05-10T23:08:51;10.70;;;3.90;;
78589;SDS011;67888;50.228;7.828;2023-05-10T23:13:52;9.55;;;3.15;;
78589;SDS011;67888;50.228;7.828;2023-05-10T23:18:52;7.90;;;3.03;;
78589;SDS011;67888;50.228;7.828;2023-05-10T23:23:53;6.87;;;2.37;;
78589;SDS011;67888;50.228;7.828;2023-05-10T23:28:54;7.67;;;2.17;;
78589;SDS011;67888;50.228;7.828;2023-05-10T23:33:54;6.23;;;2.47;;
78589;SDS011;67888;50.228;7.828;2023-05-10T23:38:54;7.97;;;2.67;;
78589;SDS011;67888;50.228;7.828;2023-05-10T23:43:55;7.80;;;2.50;;
78589;SDS011;67888;50.228;7.828;2023-05-10T23:48:55;7.47;;;2.43;;
78589;SDS011;67888;50.228;7.828;2023-05-10T23:53:55;12.00;;;5.53;;
78589;SDS011;67888;50.228;7.828;2023-05-10T23:58:56;6.40;;;2.70;;
